Thunder radar more information blitzortung!


Radar de pluja more information rain snow radar


Visita la nostra xarxa de llocs de meteo:

Template documentation
and downloads

And another site



No particular awareness of the weather is required.    There are no Weather-warnings

Pagina Historial Weather Underground text

Diari Resum Setembre 10, 2017 Unitats:  Tant    Imperial   Mètric
« Previous Dia
SegĂźent Dia »
Diari Setmana Mensual Anual Personalitzada
  Maxima: Minima: Media:
Temperatura: 81 °F /  27.2 °C 52.9 °F /  11.6 °C 69.1 °F /  20.6 °C
Punt de rosada: 53.2 °F /  11.8 °C 40.1 °F /  4.5 °C 46 °F /  7.8 °C
Humitat: 83 % 27 % 46 %
Wind Speed: 12.7 mph /  20.4 km/h - 4.6 mph /  7.4 km/h
RĂ fegues de vent: 12.7 mph /  20.4 km/h - -
Vent:- - South
Pression baro: 29.8 in /  1010.0 hPa 29.6 in /  1003.9 hPa -
Precipitacions: 0 in /  0.0 mm    
Historical Graphs
 
 
Dades de taula per Setembre 10, 2017
Temps Temperatura Punt de rosada Pression baro Vent Wind Speed RĂ fegues de vent Humitat Rainfall Rate (Hourly)
00:04 58.5 °F /  14.7 °C 53.2 °F /  11.8 °C 29.7 in /  1005.0 hPa East 2.3 mph /  3.7 km/h 2.3 mph /  3.7 km/h 83 % 0 in /  0.0 mm
00:05 54.3 °F /  12.4 °C 46.2 °F /  7.9 °C 29.7 in /  1005.0 hPa Calm   1 mph /  1.6 km/h 74 % 0 in /  0.0 mm
00:09 58.5 °F /  14.7 °C 53.1 °F /  11.7 °C 29.6 in /  1003.9 hPa East 1.6 mph /  2.6 km/h 1.6 mph /  2.6 km/h 82 % 0 in /  0.0 mm
00:14 58.3 °F /  14.6 °C 52.9 °F /  11.6 °C 29.6 in /  1003.9 hPa Calm     82 % 0 in /  0.0 mm
00:15 53.8 °F /  12.1 °C 46 °F /  7.8 °C 29.6 in /  1003.9 hPa SW 2 mph /  3.2 km/h 2 mph /  3.2 km/h 75 % 0 in /  0.0 mm
00:19 58.3 °F /  14.6 °C 52.9 °F /  11.6 °C 29.6 in /  1003.9 hPa Calm     82 % 0 in /  0.0 mm
00:25 53.2 °F /  11.8 °C 45.5 °F /  7.5 °C 29.7 in /  1005.0 hPa WSW 2 mph /  3.2 km/h 2 mph /  3.2 km/h 75 % 0 in /  0.0 mm
00:35 53.6 °F /  12.0 °C 45.9 °F /  7.7 °C 29.7 in /  1005.0 hPa West 1 mph /  1.6 km/h 3 mph /  4.8 km/h 75 % 0 in /  0.0 mm
00:45 54.1 °F /  12.3 °C 46 °F /  7.8 °C 29.7 in /  1005.0 hPa NW 1 mph /  1.6 km/h 2 mph /  3.2 km/h 74 % 0 in /  0.0 mm
00:55 54.3 °F /  12.4 °C 45.9 °F /  7.7 °C 29.7 in /  1005.0 hPa North 2 mph /  3.2 km/h 3 mph /  4.8 km/h 73 % 0 in /  0.0 mm
01:05 54.3 °F /  12.4 °C 45.9 °F /  7.7 °C 29.7 in /  1005.0 hPa NW 1 mph /  1.6 km/h 3 mph /  4.8 km/h 73 % 0 in /  0.0 mm
01:15 54.1 °F /  12.3 °C 45.3 °F /  7.4 °C 29.7 in /  1005.0 hPa Calm   2 mph /  3.2 km/h 72 % 0 in /  0.0 mm
01:25 53.8 °F /  12.1 °C 45.3 °F /  7.4 °C 29.7 in /  1005.0 hPa Calm   1 mph /  1.6 km/h 73 % 0 in /  0.0 mm
01:35 53.4 °F /  11.9 °C 45 °F /  7.2 °C 29.7 in /  1005.0 hPa Calm   2 mph /  3.2 km/h 73 % 0 in /  0.0 mm
01:45 53.2 °F /  11.8 °C 44.8 °F /  7.1 °C 29.7 in /  1005.0 hPa Calm     73 % 0 in /  0.0 mm
01:55 53.2 °F /  11.8 °C 45.1 °F /  7.3 °C 29.7 in /  1006.0 hPa NNW 1 mph /  1.6 km/h 3 mph /  4.8 km/h 74 % 0 in /  0.0 mm
02:05 53.1 °F /  11.7 °C 45 °F /  7.2 °C 29.7 in /  1006.0 hPa NNW 1 mph /  1.6 km/h 3 mph /  4.8 km/h 74 % 0 in /  0.0 mm
02:15 52.9 °F /  11.6 °C 44.8 °F /  7.1 °C 29.7 in /  1006.0 hPa NW 1 mph /  1.6 km/h 2 mph /  3.2 km/h 74 % 0 in /  0.0 mm
02:25 53.1 °F /  11.7 °C 45 °F /  7.2 °C 29.7 in /  1006.0 hPa NE 1 mph /  1.6 km/h 3 mph /  4.8 km/h 74 % 0 in /  0.0 mm
02:35 52.9 °F /  11.6 °C 44.8 °F /  7.1 °C 29.7 in /  1006.0 hPa NE 1 mph /  1.6 km/h 2 mph /  3.2 km/h 74 % 0 in /  0.0 mm
02:45 52.9 °F /  11.6 °C 44.4 °F /  6.9 °C 29.7 in /  1006.0 hPa NW 1 mph /  1.6 km/h 2 mph /  3.2 km/h 73 % 0 in /  0.0 mm
02:55 53.2 °F /  11.8 °C 44.8 °F /  7.1 °C 29.7 in /  1006.0 hPa WSW 3 mph /  4.8 km/h 4 mph /  6.4 km/h 73 % 0 in /  0.0 mm
03:05 53.4 °F /  11.9 °C 45 °F /  7.2 °C 29.7 in /  1006.0 hPa WSW 1 mph /  1.6 km/h 2 mph /  3.2 km/h 73 % 0 in /  0.0 mm
03:15 54.1 °F /  12.3 °C 45.7 °F /  7.6 °C 29.7 in /  1006.0 hPa WSW 1 mph /  1.6 km/h 2 mph /  3.2 km/h 73 % 0 in /  0.0 mm
03:25 55 °F /  12.8 °C 46.2 °F /  7.9 °C 29.7 in /  1006.0 hPa WSW 2 mph /  3.2 km/h 4 mph /  6.4 km/h 72 % 0 in /  0.0 mm
03:35 55.2 °F /  12.9 °C 46 °F /  7.8 °C 29.7 in /  1006.0 hPa WSW 1 mph /  1.6 km/h 2 mph /  3.2 km/h 71 % 0 in /  0.0 mm
03:45 57.2 °F /  14.0 °C 47.5 °F /  8.6 °C 29.7 in /  1006.0 hPa SSW 1 mph /  1.6 km/h 2 mph /  3.2 km/h 70 % 0 in /  0.0 mm
03:55 58.1 °F /  14.5 °C 47.7 °F /  8.7 °C 29.7 in /  1006.0 hPa ENE 2 mph /  3.2 km/h 2 mph /  3.2 km/h 68 % 0 in /  0.0 mm
04:05 58.8 °F /  14.9 °C 48.4 °F /  9.1 °C 29.7 in /  1006.0 hPa Calm   3 mph /  4.8 km/h 68 % 0 in /  0.0 mm
04:15 59 °F /  15.0 °C 47.7 °F /  8.7 °C 29.7 in /  1006.0 hPa NNE 1 mph /  1.6 km/h 3 mph /  4.8 km/h 66 % 0 in /  0.0 mm
04:25 60.8 °F /  16.0 °C 49.5 °F /  9.7 °C 29.7 in /  1006.0 hPa NE 1 mph /  1.6 km/h 2 mph /  3.2 km/h 66 % 0 in /  0.0 mm
04:35 59.7 °F /  15.4 °C 47.8 °F /  8.8 °C 29.7 in /  1006.0 hPa NE 3 mph /  4.8 km/h 3 mph /  4.8 km/h 65 % 0 in /  0.0 mm
04:45 60.6 °F /  15.9 °C 48.7 °F /  9.3 °C 29.7 in /  1006.0 hPa NE 1 mph /  1.6 km/h 3 mph /  4.8 km/h 65 % 0 in /  0.0 mm
04:55 61.2 °F /  16.2 °C 49.3 °F /  9.6 °C 29.7 in /  1006.0 hPa NE 3 mph /  4.8 km/h 4 mph /  6.4 km/h 65 % 0 in /  0.0 mm
09:54 61.2 °F /  16.2 °C 49.3 °F /  9.6 °C 29.7 in /  1006.0 hPa ENE 2.3 mph /  3.7 km/h 2.6 mph /  4.2 km/h 65 % 0 in /  0.0 mm
09:59 60.3 °F /  15.7 °C 48 °F /  8.9 °C 29.7 in /  1006.0 hPa NNE 4.6 mph /  7.4 km/h 4.6 mph /  7.4 km/h 64 % 0 in /  0.0 mm
10:04 61 °F /  16.1 °C 48.4 °F /  9.1 °C 29.7 in /  1006.0 hPa NNE 4.6 mph /  7.4 km/h 4.6 mph /  7.4 km/h 63 % 0 in /  0.0 mm
10:09 61.2 °F /  16.2 °C 48.6 °F /  9.2 °C 29.7 in /  1007.0 hPa NNW 4.6 mph /  7.4 km/h 4.6 mph /  7.4 km/h 63 % 0 in /  0.0 mm
10:14 62.1 °F /  16.7 °C 49.6 °F /  9.8 °C 29.7 in /  1007.0 hPa NE 3.1 mph /  5.0 km/h 3.1 mph /  5.0 km/h 64 % 0 in /  0.0 mm
10:19 62.8 °F /  17.1 °C 50 °F /  10.0 °C 29.7 in /  1007.0 hPa NE 3.5 mph /  5.6 km/h 3.5 mph /  5.6 km/h 63 % 0 in /  0.0 mm
10:24 62.8 °F /  17.1 °C 49.6 °F /  9.8 °C 29.7 in /  1007.0 hPa North 2.3 mph /  3.7 km/h 2.3 mph /  3.7 km/h 62 % 0 in /  0.0 mm
10:29 62.6 °F /  17.0 °C 48.9 °F /  9.4 °C 29.7 in /  1007.0 hPa ENE 4.6 mph /  7.4 km/h 4.6 mph /  7.4 km/h 61 % 0 in /  0.0 mm
10:34 63.9 °F /  17.7 °C 50.5 °F /  10.3 °C 29.7 in /  1007.0 hPa SW 2.4 mph /  3.9 km/h 2.4 mph /  3.9 km/h 62 % 0 in /  0.0 mm
10:39 64.6 °F /  18.1 °C 50.7 °F /  10.4 °C 29.7 in /  1007.0 hPa NE 2.6 mph /  4.2 km/h 2.6 mph /  4.2 km/h 61 % 0 in /  0.0 mm
10:44 64.8 °F /  18.2 °C 50.5 °F /  10.3 °C 29.7 in /  1007.0 hPa ENE 3.5 mph /  5.6 km/h 3.5 mph /  5.6 km/h 60 % 0 in /  0.0 mm
10:49 64.4 °F /  18.0 °C 50.2 °F /  10.1 °C 29.7 in /  1007.0 hPa East 4.6 mph /  7.4 km/h 4.6 mph /  7.4 km/h 60 % 0 in /  0.0 mm
10:54 64 °F /  17.8 °C 49.5 °F /  9.7 °C 29.7 in /  1007.0 hPa East 5.8 mph /  9.3 km/h 5.8 mph /  9.3 km/h 59 % 0 in /  0.0 mm
10:59 64.8 °F /  18.2 °C 49.6 °F /  9.8 °C 29.7 in /  1007.0 hPa ESE 4.6 mph /  7.4 km/h 4.6 mph /  7.4 km/h 58 % 0 in /  0.0 mm
11:04 64.9 °F /  18.3 °C 50.7 °F /  10.4 °C 29.7 in /  1007.0 hPa NNE 3.5 mph /  5.6 km/h 3.5 mph /  5.6 km/h 60 % 0 in /  0.0 mm
11:09 65.7 °F /  18.7 °C 50.9 °F /  10.5 °C 29.7 in /  1007.0 hPa ENE 3.5 mph /  5.6 km/h 3.5 mph /  5.6 km/h 59 % 0 in /  0.0 mm
11:14 66.6 °F /  19.2 °C 50.7 °F /  10.4 °C 29.7 in /  1007.0 hPa East 3.5 mph /  5.6 km/h 3.5 mph /  5.6 km/h 57 % 0 in /  0.0 mm
11:19 66.9 °F /  19.4 °C 51.3 °F /  10.7 °C 29.7 in /  1007.0 hPa NE 3.5 mph /  5.6 km/h 3.5 mph /  5.6 km/h 57 % 0 in /  0.0 mm
11:24 66.9 °F /  19.4 °C 51.3 °F /  10.7 °C 29.7 in /  1007.0 hPa East 4.6 mph /  7.4 km/h 4.6 mph /  7.4 km/h 57 % 0 in /  0.0 mm
11:29 67.5 °F /  19.7 °C 51.3 °F /  10.7 °C 29.7 in /  1007.0 hPa North 3.5 mph /  5.6 km/h 3.5 mph /  5.6 km/h 56 % 0 in /  0.0 mm
11:34 68.2 °F /  20.1 °C 50.4 °F /  10.2 °C 29.7 in /  1007.0 hPa ESE 3.5 mph /  5.6 km/h 3.5 mph /  5.6 km/h 53 % 0 in /  0.0 mm
11:39 68.2 °F /  20.1 °C 50.4 °F /  10.2 °C 29.7 in /  1007.0 hPa East 5.6 mph /  9.0 km/h 5.6 mph /  9.0 km/h 53 % 0 in /  0.0 mm
11:44 68.2 °F /  20.1 °C 50.4 °F /  10.2 °C 29.7 in /  1007.0 hPa ESE 5.8 mph /  9.3 km/h 5.8 mph /  9.3 km/h 53 % 0 in /  0.0 mm
11:49 68.4 °F /  20.2 °C 50 °F /  10.0 °C 29.7 in /  1007.0 hPa ESE 4.6 mph /  7.4 km/h 4.7 mph /  7.6 km/h 52 % 0 in /  0.0 mm
11:54 68.9 °F /  20.5 °C 51.6 °F /  10.9 °C 29.7 in /  1007.0 hPa NNE 3.5 mph /  5.6 km/h 3.5 mph /  5.6 km/h 54 % 0 in /  0.0 mm
11:59 69.6 °F /  20.9 °C 51.6 °F /  10.9 °C 29.7 in /  1007.0 hPa ESE 3.5 mph /  5.6 km/h 3.5 mph /  5.6 km/h 53 % 0 in /  0.0 mm
12:04 70.3 °F /  21.3 °C 52 °F /  11.1 °C 29.7 in /  1007.0 hPa ESE 4.6 mph /  7.4 km/h 4.6 mph /  7.4 km/h 52 % 0 in /  0.0 mm
12:09 70.5 °F /  21.4 °C 51.4 °F /  10.8 °C 29.7 in /  1007.0 hPa ESE 4 mph /  6.4 km/h 4 mph /  6.4 km/h 51 % 0 in /  0.0 mm
12:14 70 °F /  21.1 °C 51.4 °F /  10.8 °C 29.7 in /  1007.0 hPa ENE 4 mph /  6.4 km/h 4 mph /  6.4 km/h 52 % 0 in /  0.0 mm
12:19 71.4 °F /  21.9 °C 52.3 °F /  11.3 °C 29.7 in /  1007.0 hPa WSW 3.5 mph /  5.6 km/h 3.5 mph /  5.6 km/h 51 % 0 in /  0.0 mm
12:24 72.1 °F /  22.3 °C 52.5 °F /  11.4 °C 29.7 in /  1007.0 hPa NW 5.8 mph /  9.3 km/h 5.8 mph /  9.3 km/h 50 % 0 in /  0.0 mm
12:29 72.5 °F /  22.5 °C 51.6 °F /  10.9 °C 29.7 in /  1007.0 hPa SW 11.5 mph /  18.5 km/h 11.5 mph /  18.5 km/h 48 % 0 in /  0.0 mm
12:34 73 °F /  22.8 °C 51.6 °F /  10.9 °C 29.7 in /  1007.0 hPa WSW 6.7 mph /  10.8 km/h 6.7 mph /  10.8 km/h 47 % 0 in /  0.0 mm
12:39 72.5 °F /  22.5 °C 49.8 °F /  9.9 °C 29.7 in /  1007.0 hPa WNW 8.1 mph /  13.0 km/h 8.1 mph /  13.0 km/h 45 % 0 in /  0.0 mm
12:44 73.2 °F /  22.9 °C 50.5 °F /  10.3 °C 29.7 in /  1007.0 hPa WSW 8.1 mph /  13.0 km/h 8.1 mph /  13.0 km/h 45 % 0 in /  0.0 mm
12:49 73.4 °F /  23.0 °C 50.2 °F /  10.1 °C 29.7 in /  1007.0 hPa SSW 5.8 mph /  9.3 km/h 5.8 mph /  9.3 km/h 44 % 0 in /  0.0 mm
12:54 73.8 °F /  23.2 °C 49.8 °F /  9.9 °C 29.7 in /  1007.0 hPa WNW 6.4 mph /  10.3 km/h 6.4 mph /  10.3 km/h 43 % 0 in /  0.0 mm
12:59 73.9 °F /  23.3 °C 50 °F /  10.0 °C 29.7 in /  1007.0 hPa WSW 6.4 mph /  10.3 km/h 6.4 mph /  10.3 km/h 43 % 0 in /  0.0 mm
13:04 73.9 °F /  23.3 °C 48 °F /  8.9 °C 29.7 in /  1007.0 hPa West 8.1 mph /  13.0 km/h 8.1 mph /  13.0 km/h 40 % 0 in /  0.0 mm
13:09 74.3 °F /  23.5 °C 48.4 °F /  9.1 °C 29.7 in /  1006.0 hPa West 8.1 mph /  13.0 km/h 8.1 mph /  13.0 km/h 40 % 0 in /  0.0 mm
13:14 75 °F /  23.9 °C 49.6 °F /  9.8 °C 29.7 in /  1006.0 hPa WSW 4.3 mph /  6.9 km/h 4.3 mph /  6.9 km/h 41 % 0 in /  0.0 mm
13:19 75.4 °F /  24.1 °C 50 °F /  10.0 °C 29.7 in /  1006.0 hPa West 5.8 mph /  9.3 km/h 6.9 mph /  11.1 km/h 41 % 0 in /  0.0 mm
13:24 75 °F /  23.9 °C 49.1 °F /  9.5 °C 29.7 in /  1006.0 hPa West 5.9 mph /  9.5 km/h 5.9 mph /  9.5 km/h 40 % 0 in /  0.0 mm
13:29 75.6 °F /  24.2 °C 48.9 °F /  9.4 °C 29.7 in /  1006.0 hPa SSW 10.4 mph /  16.7 km/h 10.4 mph /  16.7 km/h 39 % 0 in /  0.0 mm
13:34 75.4 °F /  24.1 °C 48 °F /  8.9 °C 29.7 in /  1006.0 hPa WNW 5.8 mph /  9.3 km/h 5.8 mph /  9.3 km/h 38 % 0 in /  0.0 mm
13:39 75.6 °F /  24.2 °C 47.5 °F /  8.6 °C 29.7 in /  1005.0 hPa SSW 10.4 mph /  16.7 km/h 10.4 mph /  16.7 km/h 37 % 0 in /  0.0 mm
13:44 75.9 °F /  24.4 °C 48.6 °F /  9.2 °C 29.7 in /  1005.0 hPa North 4 mph /  6.4 km/h 4 mph /  6.4 km/h 38 % 0 in /  0.0 mm
13:49 76.3 °F /  24.6 °C 48 °F /  8.9 °C 29.7 in /  1005.0 hPa WNW 6.9 mph /  11.1 km/h 6.9 mph /  11.1 km/h 37 % 0 in /  0.0 mm
13:54 76.3 °F /  24.6 °C 48 °F /  8.9 °C 29.7 in /  1006.0 hPa WNW 4.9 mph /  7.9 km/h 5.4 mph /  8.7 km/h 37 % 0 in /  0.0 mm
13:59 76.6 °F /  24.8 °C 48.4 °F /  9.1 °C 29.7 in /  1006.0 hPa NNE 5.8 mph /  9.3 km/h 5.8 mph /  9.3 km/h 37 % 0 in /  0.0 mm
14:04 77 °F /  25.0 °C 46.6 °F /  8.1 °C 29.7 in /  1006.0 hPa WSW 6.9 mph /  11.1 km/h 6.9 mph /  11.1 km/h 34 % 0 in /  0.0 mm
14:09 76.5 °F /  24.7 °C 45.1 °F /  7.3 °C 29.7 in /  1006.0 hPa SSW 8.1 mph /  13.0 km/h 8.1 mph /  13.0 km/h 33 % 0 in /  0.0 mm
14:14 77 °F /  25.0 °C 45.7 °F /  7.6 °C 29.7 in /  1006.0 hPa WNW 4.6 mph /  7.4 km/h 4.6 mph /  7.4 km/h 33 % 0 in /  0.0 mm
14:19 76.6 °F /  24.8 °C 44.6 °F /  7.0 °C 29.7 in /  1006.0 hPa SSW 9.2 mph /  14.8 km/h 9.2 mph /  14.8 km/h 32 % 0 in /  0.0 mm
14:24 77.2 °F /  25.1 °C 45 °F /  7.2 °C 29.7 in /  1006.0 hPa West 9.2 mph /  14.8 km/h 9.2 mph /  14.8 km/h 32 % 0 in /  0.0 mm
14:25 77.2 °F /  25.1 °C 45 °F /  7.2 °C 29.7 in /  1006.0 hPa West 9.2 mph /  14.8 km/h 9.2 mph /  14.8 km/h 32 % 0 in /  0.0 mm
14:30 76.8 °F /  24.9 °C 44.8 °F /  7.1 °C 29.7 in /  1006.0 hPa NW 8.1 mph /  13.0 km/h 8.1 mph /  13.0 km/h 32 % 0 in /  0.0 mm
14:35 77.4 °F /  25.2 °C 44.4 °F /  6.9 °C 29.7 in /  1006.0 hPa SSW 5.9 mph /  9.5 km/h 5.9 mph /  9.5 km/h 31 % 0 in /  0.0 mm
14:40 77.7 °F /  25.4 °C 43.9 °F /  6.6 °C 29.7 in /  1006.0 hPa West 5.8 mph /  9.3 km/h 5.8 mph /  9.3 km/h 30 % 0 in /  0.0 mm
14:45 77.9 °F /  25.5 °C 44.1 °F /  6.7 °C 29.7 in /  1006.0 hPa WNW 8.5 mph /  13.7 km/h 8.5 mph /  13.7 km/h 30 % 0 in /  0.0 mm
14:50 77.7 °F /  25.4 °C 43.9 °F /  6.6 °C 29.7 in /  1006.0 hPa WSW 7.6 mph /  12.2 km/h 7.6 mph /  12.2 km/h 30 % 0 in /  0.0 mm
14:55 78.3 °F /  25.7 °C 44.2 °F /  6.8 °C 29.7 in /  1006.0 hPa NW 5.8 mph /  9.3 km/h 5.8 mph /  9.3 km/h 30 % 0 in /  0.0 mm
15:00 78.1 °F /  25.6 °C 43.2 °F /  6.2 °C 29.7 in /  1006.0 hPa South 2.3 mph /  3.7 km/h 2.6 mph /  4.2 km/h 29 % 0 in /  0.0 mm
15:05 78.4 °F /  25.8 °C 44.4 °F /  6.9 °C 29.7 in /  1006.0 hPa West 3.5 mph /  5.6 km/h 3.5 mph /  5.6 km/h 30 % 0 in /  0.0 mm
15:10 79.2 °F /  26.2 °C 45 °F /  7.2 °C 29.7 in /  1006.0 hPa WNW 7.1 mph /  11.4 km/h 7.1 mph /  11.4 km/h 30 % 0 in /  0.0 mm
15:15 78.6 °F /  25.9 °C 44.6 °F /  7.0 °C 29.7 in /  1006.0 hPa WSW 9.2 mph /  14.8 km/h 9.2 mph /  14.8 km/h 30 % 0 in /  0.0 mm
15:20 77.9 °F /  25.5 °C 43.2 °F /  6.2 °C 29.7 in /  1006.0 hPa WSW 10.4 mph /  16.7 km/h 10.4 mph /  16.7 km/h 29 % 0 in /  0.0 mm
15:22 77.7 °F /  25.4 °C 43 °F /  6.1 °C 29.7 in /  1005.0 hPa WSW 5.8 mph /  9.3 km/h 5.9 mph /  9.5 km/h 29 % 0 in /  0.0 mm
15:27 78.4 °F /  25.8 °C 43.5 °F /  6.4 °C 29.7 in /  1005.0 hPa WSW 8.1 mph /  13.0 km/h 8.1 mph /  13.0 km/h 29 % 0 in /  0.0 mm
15:32 79 °F /  26.1 °C 44.1 °F /  6.7 °C 29.7 in /  1005.0 hPa WSW 6.9 mph /  11.1 km/h 6.9 mph /  11.1 km/h 29 % 0 in /  0.0 mm
15:37 79.3 °F /  26.3 °C 44.2 °F /  6.8 °C 29.7 in /  1006.0 hPa WNW 10.4 mph /  16.7 km/h 10.4 mph /  16.7 km/h 29 % 0 in /  0.0 mm
15:42 79.3 °F /  26.3 °C 44.2 °F /  6.8 °C 29.7 in /  1006.0 hPa WNW 8.1 mph /  13.0 km/h 8.1 mph /  13.0 km/h 29 % 0 in /  0.0 mm
15:47 79.7 °F /  26.5 °C 44.6 °F /  7.0 °C 29.7 in /  1006.0 hPa WSW 10.4 mph /  16.7 km/h 10.4 mph /  16.7 km/h 29 % 0 in /  0.0 mm
15:52 79.9 °F /  26.6 °C 44.8 °F /  7.1 °C 29.7 in /  1006.0 hPa West 8.1 mph /  13.0 km/h 8.1 mph /  13.0 km/h 29 % 0 in /  0.0 mm
15:57 80.4 °F /  26.9 °C 45.1 °F /  7.3 °C 29.7 in /  1006.0 hPa WNW 4.6 mph /  7.4 km/h 4.6 mph /  7.4 km/h 29 % 0 in /  0.0 mm
16:02 80.1 °F /  26.7 °C 44.1 °F /  6.7 °C 29.7 in /  1006.0 hPa SW 9.2 mph /  14.8 km/h 9.2 mph /  14.8 km/h 28 % 0 in /  0.0 mm
16:07 79.7 °F /  26.5 °C 43.7 °F /  6.5 °C 29.7 in /  1006.0 hPa NNW 10.4 mph /  16.7 km/h 10.4 mph /  16.7 km/h 28 % 0 in /  0.0 mm
16:12 79.5 °F /  26.4 °C 43.5 °F /  6.4 °C 29.7 in /  1006.0 hPa NNW 4.6 mph /  7.4 km/h 4.6 mph /  7.4 km/h 28 % 0 in /  0.0 mm
16:17 80.4 °F /  26.9 °C 44.2 °F /  6.8 °C 29.7 in /  1006.0 hPa West 4.6 mph /  7.4 km/h 4.6 mph /  7.4 km/h 28 % 0 in /  0.0 mm
16:22 80.8 °F /  27.1 °C 44.6 °F /  7.0 °C 29.7 in /  1006.0 hPa SW 6.9 mph /  11.1 km/h 6.9 mph /  11.1 km/h 28 % 0 in /  0.0 mm
16:27 81 °F /  27.2 °C 44.8 °F /  7.1 °C 29.7 in /  1006.0 hPa WSW 9.2 mph /  14.8 km/h 9.2 mph /  14.8 km/h 28 % 0 in /  0.0 mm
16:32 80.8 °F /  27.1 °C 44.6 °F /  7.0 °C 29.7 in /  1006.0 hPa WNW 7.8 mph /  12.6 km/h 7.8 mph /  12.6 km/h 28 % 0 in /  0.0 mm
16:37 80.8 °F /  27.1 °C 44.6 °F /  7.0 °C 29.7 in /  1007.0 hPa WSW 9.2 mph /  14.8 km/h 9.2 mph /  14.8 km/h 28 % 0 in /  0.0 mm
16:42 80.6 °F /  27.0 °C 44.4 °F /  6.9 °C 29.7 in /  1007.0 hPa SW 8.1 mph /  13.0 km/h 8.1 mph /  13.0 km/h 28 % 0 in /  0.0 mm
16:47 80.6 °F /  27.0 °C 44.4 °F /  6.9 °C 29.7 in /  1007.0 hPa West 5.8 mph /  9.3 km/h 6.7 mph /  10.8 km/h 28 % 0 in /  0.0 mm
16:52 80.4 °F /  26.9 °C 44.2 °F /  6.8 °C 29.7 in /  1005.0 hPa NW 10.4 mph /  16.7 km/h 10.4 mph /  16.7 km/h 28 % 0 in /  0.0 mm
16:57 80.4 °F /  26.9 °C 44.2 °F /  6.8 °C 29.7 in /  1005.0 hPa WSW 8.1 mph /  13.0 km/h 8.1 mph /  13.0 km/h 28 % 0 in /  0.0 mm
17:02 80.8 °F /  27.1 °C 44.6 °F /  7.0 °C 29.7 in /  1005.0 hPa WSW 5.8 mph /  9.3 km/h 5.8 mph /  9.3 km/h 28 % 0 in /  0.0 mm
17:07 80.6 °F /  27.0 °C 44.4 °F /  6.9 °C 29.7 in /  1006.0 hPa SSW 9.2 mph /  14.8 km/h 9.2 mph /  14.8 km/h 28 % 0 in /  0.0 mm
17:12 81 °F /  27.2 °C 44.8 °F /  7.1 °C 29.7 in /  1006.0 hPa West 5.8 mph /  9.3 km/h 5.8 mph /  9.3 km/h 28 % 0 in /  0.0 mm
17:17 79.9 °F /  26.6 °C 43.9 °F /  6.6 °C 29.7 in /  1006.0 hPa West 4.3 mph /  6.9 km/h 4.3 mph /  6.9 km/h 28 % 0 in /  0.0 mm
17:22 80.6 °F /  27.0 °C 44.4 °F /  6.9 °C 29.7 in /  1006.0 hPa NNW 7.4 mph /  11.9 km/h 7.4 mph /  11.9 km/h 28 % 0 in /  0.0 mm
17:27 80.4 °F /  26.9 °C 44.2 °F /  6.8 °C 29.7 in /  1006.0 hPa SSW 8.1 mph /  13.0 km/h 8.1 mph /  13.0 km/h 28 % 0 in /  0.0 mm
17:32 80.2 °F /  26.8 °C 44.2 °F /  6.8 °C 29.7 in /  1006.0 hPa WSW 6.9 mph /  11.1 km/h 6.9 mph /  11.1 km/h 28 % 0 in /  0.0 mm
17:37 79.9 °F /  26.6 °C 43.9 °F /  6.6 °C 29.7 in /  1006.0 hPa SW 8.1 mph /  13.0 km/h 8.1 mph /  13.0 km/h 28 % 0 in /  0.0 mm
17:42 79.9 °F /  26.6 °C 43.9 °F /  6.6 °C 29.7 in /  1006.0 hPa SW 9.7 mph /  15.6 km/h 9.7 mph /  15.6 km/h 28 % 0 in /  0.0 mm
17:47 79.9 °F /  26.6 °C 43.9 °F /  6.6 °C 29.7 in /  1006.0 hPa SW 9.2 mph /  14.8 km/h 9.2 mph /  14.8 km/h 28 % 0 in /  0.0 mm
17:52 79.7 °F /  26.5 °C 43.7 °F /  6.5 °C 29.7 in /  1006.0 hPa SW 8.1 mph /  13.0 km/h 8.1 mph /  13.0 km/h 28 % 0 in /  0.0 mm
17:57 79.3 °F /  26.3 °C 43.3 °F /  6.3 °C 29.7 in /  1006.0 hPa West 5.8 mph /  9.3 km/h 5.8 mph /  9.3 km/h 28 % 0 in /  0.0 mm
18:02 79.7 °F /  26.5 °C 43.7 °F /  6.5 °C 29.7 in /  1006.0 hPa SW 9.2 mph /  14.8 km/h 9.2 mph /  14.8 km/h 28 % 0 in /  0.0 mm
18:07 79.3 °F /  26.3 °C 43.3 °F /  6.3 °C 29.7 in /  1005.0 hPa West 9.2 mph /  14.8 km/h 9.2 mph /  14.8 km/h 28 % 0 in /  0.0 mm
18:12 79.2 °F /  26.2 °C 43.2 °F /  6.2 °C 29.7 in /  1005.0 hPa WSW 8.1 mph /  13.0 km/h 8.1 mph /  13.0 km/h 28 % 0 in /  0.0 mm
18:17 79 °F /  26.1 °C 42.1 °F /  5.6 °C 29.7 in /  1005.0 hPa SSW 12.7 mph /  20.4 km/h 12.7 mph /  20.4 km/h 27 % 0 in /  0.0 mm
18:22 78.8 °F /  26.0 °C 42.1 °F /  5.6 °C 29.7 in /  1006.0 hPa WSW 9.2 mph /  14.8 km/h 9.2 mph /  14.8 km/h 27 % 0 in /  0.0 mm
18:27 78.8 °F /  26.0 °C 42.1 °F /  5.6 °C 29.7 in /  1006.0 hPa West 5.8 mph /  9.3 km/h 5.8 mph /  9.3 km/h 27 % 0 in /  0.0 mm
18:32 79 °F /  26.1 °C 42.1 °F /  5.6 °C 29.7 in /  1006.0 hPa WSW 10.4 mph /  16.7 km/h 10.4 mph /  16.7 km/h 27 % 0 in /  0.0 mm
18:37 78.4 °F /  25.8 °C 41.7 °F /  5.4 °C 29.7 in /  1006.0 hPa South 10.7 mph /  17.2 km/h 10.7 mph /  17.2 km/h 27 % 0 in /  0.0 mm
18:42 78.3 °F /  25.7 °C 42.4 °F /  5.8 °C 29.7 in /  1006.0 hPa West 8.1 mph /  13.0 km/h 8.1 mph /  13.0 km/h 28 % 0 in /  0.0 mm
18:47 78.6 °F /  25.9 °C 42.8 °F /  6.0 °C 29.7 in /  1006.0 hPa WSW 8.1 mph /  13.0 km/h 8.1 mph /  13.0 km/h 28 % 0 in /  0.0 mm
18:52 78.4 °F /  25.8 °C 42.6 °F /  5.9 °C 29.7 in /  1006.0 hPa WSW 10.4 mph /  16.7 km/h 10.4 mph /  16.7 km/h 28 % 0 in /  0.0 mm
18:57 77.9 °F /  25.5 °C 42.3 °F /  5.7 °C 29.7 in /  1006.0 hPa SW 8.1 mph /  13.0 km/h 8.1 mph /  13.0 km/h 28 % 0 in /  0.0 mm
19:02 77.5 °F /  25.3 °C 41.7 °F /  5.4 °C 29.7 in /  1006.0 hPa WSW 11.5 mph /  18.5 km/h 11.5 mph /  18.5 km/h 28 % 0 in /  0.0 mm
19:07 76.8 °F /  24.9 °C 42.1 °F /  5.6 °C 29.7 in /  1006.0 hPa WNW 5.8 mph /  9.3 km/h 5.8 mph /  9.3 km/h 29 % 0 in /  0.0 mm
19:10 65.1 °F /  18.4 °C 46.6 °F /  8.1 °C 29.8 in /  1010.0 hPa Calm     51 % 0 in /  0.0 mm
19:12 76.6 °F /  24.8 °C 42.1 °F /  5.6 °C 29.7 in /  1006.0 hPa West 6.9 mph /  11.1 km/h 6.9 mph /  11.1 km/h 29 % 0 in /  0.0 mm
19:17 76.3 °F /  24.6 °C 41.7 °F /  5.4 °C 29.7 in /  1006.0 hPa West 5.8 mph /  9.3 km/h 5.8 mph /  9.3 km/h 29 % 0 in /  0.0 mm
19:20 64.9 °F /  18.3 °C 46.4 °F /  8.0 °C 29.8 in /  1010.0 hPa NNE 1 mph /  1.6 km/h 1 mph /  1.6 km/h 51 % 0 in /  0.0 mm
19:22 76.1 °F /  24.5 °C 41.5 °F /  5.3 °C 29.7 in /  1006.0 hPa WSW 7.6 mph /  12.2 km/h 7.6 mph /  12.2 km/h 29 % 0 in /  0.0 mm
19:27 75.6 °F /  24.2 °C 41.2 °F /  5.1 °C 29.7 in /  1006.0 hPa West 8.1 mph /  13.0 km/h 8.1 mph /  13.0 km/h 29 % 0 in /  0.0 mm
19:30 64.8 °F /  18.2 °C 46.2 °F /  7.9 °C 29.8 in /  1009.0 hPa West 1 mph /  1.6 km/h 2 mph /  3.2 km/h 51 % 0 in /  0.0 mm
19:32 75.2 °F /  24.0 °C 40.6 °F /  4.8 °C 29.7 in /  1006.0 hPa West 5.8 mph /  9.3 km/h 5.8 mph /  9.3 km/h 29 % 0 in /  0.0 mm
19:37 74.8 °F /  23.8 °C 40.5 °F /  4.7 °C 29.7 in /  1007.0 hPa WSW 4.6 mph /  7.4 km/h 4.6 mph /  7.4 km/h 29 % 0 in /  0.0 mm
19:40 64.6 °F /  18.1 °C 46 °F /  7.8 °C 29.8 in /  1010.0 hPa West 2 mph /  3.2 km/h 2 mph /  3.2 km/h 51 % 0 in /  0.0 mm
19:42 74.5 °F /  23.6 °C 41 °F /  5.0 °C 29.7 in /  1007.0 hPa SW 5.8 mph /  9.3 km/h 5.8 mph /  9.3 km/h 30 % 0 in /  0.0 mm
19:47 74.3 °F /  23.5 °C 40.8 °F /  4.9 °C 29.7 in /  1007.0 hPa WSW 5.6 mph /  9.0 km/h 5.6 mph /  9.0 km/h 30 % 0 in /  0.0 mm
19:49 74.1 °F /  23.4 °C 40.6 °F /  4.8 °C 29.7 in /  1007.0 hPa WSW 4.6 mph /  7.4 km/h 4.6 mph /  7.4 km/h 30 % 0 in /  0.0 mm
19:50 64 °F /  17.8 °C 45 °F /  7.2 °C 29.8 in /  1010.0 hPa WSW 1 mph /  1.6 km/h 2 mph /  3.2 km/h 50 % 0 in /  0.0 mm
19:54 73.8 °F /  23.2 °C 40.5 °F /  4.7 °C 29.7 in /  1007.0 hPa WSW 4.6 mph /  7.4 km/h 4.6 mph /  7.4 km/h 30 % 0 in /  0.0 mm
19:59 73.4 °F /  23.0 °C 40.1 °F /  4.5 °C 29.7 in /  1007.0 hPa WNW 10.4 mph /  16.7 km/h 10.4 mph /  16.7 km/h 30 % 0 in /  0.0 mm
20:00 64 °F /  17.8 °C 45 °F /  7.2 °C 29.8 in /  1010.0 hPa WSW 1 mph /  1.6 km/h 2 mph /  3.2 km/h 50 % 0 in /  0.0 mm
20:04 73.2 °F /  22.9 °C 40.8 °F /  4.9 °C 29.7 in /  1007.0 hPa WSW 3.5 mph /  5.6 km/h 3.5 mph /  5.6 km/h 31 % 0 in /  0.0 mm
20:09 72.9 °F /  22.7 °C 40.5 °F /  4.7 °C 29.8 in /  1008.0 hPa West 5.8 mph /  9.3 km/h 5.8 mph /  9.3 km/h 31 % 0 in /  0.0 mm
20:10 63.7 °F /  17.6 °C 44.8 °F /  7.1 °C 29.8 in /  1009.0 hPa WSW 1 mph /  1.6 km/h 2 mph /  3.2 km/h 50 % 0 in /  0.0 mm
20:14 72.7 °F /  22.6 °C 40.3 °F /  4.6 °C 29.8 in /  1008.0 hPa WSW 3.5 mph /  5.6 km/h 3.5 mph /  5.6 km/h 31 % 0 in /  0.0 mm
20:19 72.5 °F /  22.5 °C 41 °F /  5.0 °C 29.8 in /  1008.0 hPa WSW 3.6 mph /  5.8 km/h 3.6 mph /  5.8 km/h 32 % 0 in /  0.0 mm
20:20 63.1 °F /  17.3 °C 44.8 °F /  7.1 °C 29.8 in /  1009.0 hPa Calm   2 mph /  3.2 km/h 51 % 0 in /  0.0 mm
20:24 72.3 °F /  22.4 °C 40.8 °F /  4.9 °C 29.8 in /  1008.0 hPa SW 1.6 mph /  2.6 km/h   32 % 0 in /  0.0 mm
20:29 72 °F /  22.2 °C 40.5 °F /  4.7 °C 29.8 in /  1008.0 hPa WSW 1.2 mph /  1.9 km/h 1.2 mph /  1.9 km/h 32 % 0 in /  0.0 mm
20:30 63 °F /  17.2 °C 44.4 °F /  6.9 °C 29.8 in /  1010.0 hPa SW 1 mph /  1.6 km/h 2 mph /  3.2 km/h 51 % 0 in /  0.0 mm
20:34 71.8 °F /  22.1 °C 40.3 °F /  4.6 °C 29.8 in /  1008.0 hPa NE 3.5 mph /  5.6 km/h 3.5 mph /  5.6 km/h 32 % 0 in /  0.0 mm
20:39 70.9 °F /  21.6 °C 41.9 °F /  5.5 °C 29.7 in /  1007.0 hPa ESE 3.5 mph /  5.6 km/h 3.5 mph /  5.6 km/h 35 % 0 in /  0.0 mm
20:40 62.6 °F /  17.0 °C 44.2 °F /  6.8 °C 29.8 in /  1010.0 hPa WSW 1 mph /  1.6 km/h 2 mph /  3.2 km/h 51 % 0 in /  0.0 mm
20:44 70.2 °F /  21.2 °C 42.6 °F /  5.9 °C 29.7 in /  1007.0 hPa NE 3.5 mph /  5.6 km/h 3.5 mph /  5.6 km/h 37 % 0 in /  0.0 mm
20:49 69.6 °F /  20.9 °C 43.5 °F /  6.4 °C 29.7 in /  1007.0 hPa East 2.4 mph /  3.9 km/h 2.4 mph /  3.9 km/h 39 % 0 in /  0.0 mm
20:50 62.2 °F /  16.8 °C 44.4 °F /  6.9 °C 29.8 in /  1010.0 hPa Calm   2 mph /  3.2 km/h 52 % 0 in /  0.0 mm
20:54 69.4 °F /  20.8 °C 44.1 °F /  6.7 °C 29.8 in /  1008.0 hPa ESE 3.1 mph /  5.0 km/h 3.1 mph /  5.0 km/h 40 % 0 in /  0.0 mm
20:59 68.9 °F /  20.5 °C 45 °F /  7.2 °C 29.8 in /  1008.0 hPa ESE 3.5 mph /  5.6 km/h 3.5 mph /  5.6 km/h 42 % 0 in /  0.0 mm
21:00 62.4 °F /  16.9 °C 44.6 °F /  7.0 °C 29.8 in /  1010.0 hPa WSW 1 mph /  1.6 km/h 2 mph /  3.2 km/h 52 % 0 in /  0.0 mm
21:04 68.7 °F /  20.4 °C 45.3 °F /  7.4 °C 29.8 in /  1008.0 hPa NE 2.2 mph /  3.5 km/h   43 % 0 in /  0.0 mm
21:09 68.2 °F /  20.1 °C 45.3 °F /  7.4 °C 29.8 in /  1009.0 hPa NNE 4.3 mph /  6.9 km/h 4.3 mph /  6.9 km/h 44 % 0 in /  0.0 mm
21:10 62.8 °F /  17.1 °C 44.4 °F /  6.9 °C 29.8 in /  1010.0 hPa West 2 mph /  3.2 km/h 4 mph /  6.4 km/h 51 % 0 in /  0.0 mm
21:14 67.8 °F /  19.9 °C 45.7 °F /  7.6 °C 29.8 in /  1009.0 hPa ENE 5.8 mph /  9.3 km/h 5.8 mph /  9.3 km/h 45 % 0 in /  0.0 mm
21:19 67.6 °F /  19.8 °C 46 °F /  7.8 °C 29.8 in /  1009.0 hPa NNE 3.5 mph /  5.6 km/h 3.5 mph /  5.6 km/h 46 % 0 in /  0.0 mm
21:20 63.3 °F /  17.4 °C 45 °F /  7.2 °C 29.8 in /  1010.0 hPa West 3 mph /  4.8 km/h 5 mph /  8.0 km/h 51 % 0 in /  0.0 mm
21:24 67.3 °F /  19.6 °C 46.4 °F /  8.0 °C 29.8 in /  1009.0 hPa ENE 2.2 mph /  3.5 km/h 2.2 mph /  3.5 km/h 47 % 0 in /  0.0 mm
21:29 67.1 °F /  19.5 °C 46.8 °F /  8.2 °C 29.8 in /  1009.0 hPa NE 3.5 mph /  5.6 km/h 3.5 mph /  5.6 km/h 48 % 0 in /  0.0 mm
21:30 63.7 °F /  17.6 °C 44.8 °F /  7.1 °C 29.8 in /  1009.0 hPa West 3 mph /  4.8 km/h 5 mph /  8.0 km/h 50 % 0 in /  0.0 mm
21:34 66.9 °F /  19.4 °C 46.6 °F /  8.1 °C 29.8 in /  1009.0 hPa ENE 4.6 mph /  7.4 km/h 4.6 mph /  7.4 km/h 48 % 0 in /  0.0 mm
21:36 66.9 °F /  19.4 °C 47.1 °F /  8.4 °C 29.8 in /  1010.0 hPa NE 5.9 mph /  9.5 km/h 5.9 mph /  9.5 km/h 49 % 0 in /  0.0 mm
21:40 63.7 °F /  17.6 °C 44.8 °F /  7.1 °C 29.8 in /  1009.0 hPa West 5 mph /  8.0 km/h 5 mph /  8.0 km/h 50 % 0 in /  0.0 mm
21:41 66.7 °F /  19.3 °C 46.9 °F /  8.3 °C 29.8 in /  1010.0 hPa NNE 3.5 mph /  5.6 km/h 3.5 mph /  5.6 km/h 49 % 0 in /  0.0 mm
21:46 66.7 °F /  19.3 °C 46.9 °F /  8.3 °C 29.8 in /  1010.0 hPa NNW 3.5 mph /  5.6 km/h 3.5 mph /  5.6 km/h 49 % 0 in /  0.0 mm
21:50 63.7 °F /  17.6 °C 44.8 °F /  7.1 °C 29.8 in /  1009.0 hPa West 3 mph /  4.8 km/h 5 mph /  8.0 km/h 50 % 0 in /  0.0 mm
21:51 66.7 °F /  19.3 °C 47.5 °F /  8.6 °C 29.8 in /  1010.0 hPa East 2.3 mph /  3.7 km/h 2.3 mph /  3.7 km/h 50 % 0 in /  0.0 mm
21:56 66.6 °F /  19.2 °C 47.3 °F /  8.5 °C 29.8 in /  1010.0 hPa East 2.3 mph /  3.7 km/h 2.3 mph /  3.7 km/h 50 % 0 in /  0.0 mm
22:00 63.9 °F /  17.7 °C 45 °F /  7.2 °C 29.8 in /  1009.0 hPa WSW 3 mph /  4.8 km/h 4 mph /  6.4 km/h 50 % 0 in /  0.0 mm
22:01 66.6 °F /  19.2 °C 47.3 °F /  8.5 °C 29.8 in /  1010.0 hPa ENE 3.5 mph /  5.6 km/h 3.5 mph /  5.6 km/h 50 % 0 in /  0.0 mm
22:06 66.4 °F /  19.1 °C 47.1 °F /  8.4 °C 29.8 in /  1010.0 hPa ENE 1.6 mph /  2.6 km/h 1.6 mph /  2.6 km/h 50 % 0 in /  0.0 mm
22:10 64.2 °F /  17.9 °C 44.6 °F /  7.0 °C 29.8 in /  1009.0 hPa West 6 mph /  9.7 km/h 6 mph /  9.7 km/h 49 % 0 in /  0.0 mm
22:11 66.2 °F /  19.0 °C 47.5 °F /  8.6 °C 29.8 in /  1010.0 hPa ESE 4.6 mph /  7.4 km/h 4.6 mph /  7.4 km/h 51 % 0 in /  0.0 mm
22:16 66.2 °F /  19.0 °C 47.5 °F /  8.6 °C 29.8 in /  1010.0 hPa ESE 2.3 mph /  3.7 km/h 2.3 mph /  3.7 km/h 51 % 0 in /  0.0 mm
22:20 64.2 °F /  17.9 °C 44.6 °F /  7.0 °C 29.8 in /  1009.0 hPa West 3 mph /  4.8 km/h 3 mph /  4.8 km/h 49 % 0 in /  0.0 mm
22:21 65.8 °F /  18.8 °C 47.1 °F /  8.4 °C 29.8 in /  1010.0 hPa WSW 1.2 mph /  1.9 km/h 1.2 mph /  1.9 km/h 51 % 0 in /  0.0 mm
22:26 65.7 °F /  18.7 °C 47.5 °F /  8.6 °C 29.8 in /  1010.0 hPa NNE 3.6 mph /  5.8 km/h 3.6 mph /  5.8 km/h 52 % 0 in /  0.0 mm
22:30 64 °F /  17.8 °C 44.4 °F /  6.9 °C 29.8 in /  1009.0 hPa West 3 mph /  4.8 km/h 6 mph /  9.7 km/h 49 % 0 in /  0.0 mm
22:31 65.5 °F /  18.6 °C 47.5 °F /  8.6 °C 29.8 in /  1010.0 hPa NNE 3.5 mph /  5.6 km/h 3.5 mph /  5.6 km/h 52 % 0 in /  0.0 mm
22:36 65.5 °F /  18.6 °C 47.5 °F /  8.6 °C 29.8 in /  1010.0 hPa NNE 3.5 mph /  5.6 km/h 3.5 mph /  5.6 km/h 52 % 0 in /  0.0 mm
22:40 63.9 °F /  17.7 °C 44.2 °F /  6.8 °C 29.8 in /  1010.0 hPa West 2 mph /  3.2 km/h 4 mph /  6.4 km/h 49 % 0 in /  0.0 mm
22:41 65.5 °F /  18.6 °C 47.5 °F /  8.6 °C 29.8 in /  1010.0 hPa NNE 3.5 mph /  5.6 km/h 3.5 mph /  5.6 km/h 52 % 0 in /  0.0 mm
22:46 65.5 °F /  18.6 °C 47.5 °F /  8.6 °C 29.8 in /  1010.0 hPa NNE 3.5 mph /  5.6 km/h 3.5 mph /  5.6 km/h 52 % 0 in /  0.0 mm
22:50 63.7 °F /  17.6 °C 44.2 °F /  6.8 °C 29.8 in /  1010.0 hPa WSW 5 mph /  8.0 km/h 5 mph /  8.0 km/h 49 % 0 in /  0.0 mm
22:51 65.5 °F /  18.6 °C 47.5 °F /  8.6 °C 29.8 in /  1010.0 hPa NNE 3.5 mph /  5.6 km/h 3.5 mph /  5.6 km/h 52 % 0 in /  0.0 mm
22:56 65.5 °F /  18.6 °C 47.5 °F /  8.6 °C 29.8 in /  1010.0 hPa NNE 3.5 mph /  5.6 km/h 3.5 mph /  5.6 km/h 52 % 0 in /  0.0 mm
23:00 63.5 °F /  17.5 °C 44.1 °F /  6.7 °C 29.8 in /  1009.0 hPa WSW 3 mph /  4.8 km/h 5 mph /  8.0 km/h 49 % 0 in /  0.0 mm
23:01 65.5 °F /  18.6 °C 47.5 °F /  8.6 °C 29.8 in /  1010.0 hPa NNE 3.5 mph /  5.6 km/h 3.5 mph /  5.6 km/h 52 % 0 in /  0.0 mm
23:06 65.5 °F /  18.6 °C 47.5 °F /  8.6 °C 29.8 in /  1010.0 hPa NNE 3.5 mph /  5.6 km/h 3.5 mph /  5.6 km/h 52 % 0 in /  0.0 mm
23:10 63.5 °F /  17.5 °C 44.1 °F /  6.7 °C 29.8 in /  1009.0 hPa WSW 3 mph /  4.8 km/h 3 mph /  4.8 km/h 49 % 0 in /  0.0 mm
23:11 65.5 °F /  18.6 °C 47.5 °F /  8.6 °C 29.8 in /  1010.0 hPa NNE 3.5 mph /  5.6 km/h 3.5 mph /  5.6 km/h 52 % 0 in /  0.0 mm
23:16 65.5 °F /  18.6 °C 47.5 °F /  8.6 °C 29.8 in /  1010.0 hPa NNE 3.5 mph /  5.6 km/h 3.5 mph /  5.6 km/h 52 % 0 in /  0.0 mm
23:20 63.3 °F /  17.4 °C 43.9 °F /  6.6 °C 29.8 in /  1009.0 hPa WSW 3 mph /  4.8 km/h 4 mph /  6.4 km/h 49 % 0 in /  0.0 mm
23:21 65.5 °F /  18.6 °C 47.5 °F /  8.6 °C 29.8 in /  1010.0 hPa NNE 3.5 mph /  5.6 km/h 3.5 mph /  5.6 km/h 52 % 0 in /  0.0 mm
23:26 65.5 °F /  18.6 °C 47.5 °F /  8.6 °C 29.8 in /  1010.0 hPa NNE 3.5 mph /  5.6 km/h 3.5 mph /  5.6 km/h 52 % 0 in /  0.0 mm
23:30 63.1 °F /  17.3 °C 43.7 °F /  6.5 °C 29.8 in /  1009.0 hPa WSW 2 mph /  3.2 km/h 4 mph /  6.4 km/h 49 % 0 in /  0.0 mm
23:31 65.5 °F /  18.6 °C 47.5 °F /  8.6 °C 29.8 in /  1010.0 hPa NNE 3.5 mph /  5.6 km/h 3.5 mph /  5.6 km/h 52 % 0 in /  0.0 mm
23:36 65.5 °F /  18.6 °C 47.5 °F /  8.6 °C 29.8 in /  1010.0 hPa NNE 3.5 mph /  5.6 km/h 3.5 mph /  5.6 km/h 52 % 0 in /  0.0 mm
23:40 63 °F /  17.2 °C 43.5 °F /  6.4 °C 29.8 in /  1009.0 hPa West 1 mph /  1.6 km/h 2 mph /  3.2 km/h 49 % 0 in /  0.0 mm
23:41 65.5 °F /  18.6 °C 47.5 °F /  8.6 °C 29.8 in /  1010.0 hPa NNE 3.5 mph /  5.6 km/h 3.5 mph /  5.6 km/h 52 % 0 in /  0.0 mm
23:46 65.5 °F /  18.6 °C 47.5 °F /  8.6 °C 29.8 in /  1010.0 hPa NNE 3.5 mph /  5.6 km/h 3.5 mph /  5.6 km/h 52 % 0 in /  0.0 mm
23:50 62.6 °F /  17.0 °C 43.7 °F /  6.5 °C 29.8 in /  1009.0 hPa West 1 mph /  1.6 km/h 2 mph /  3.2 km/h 50 % 0 in /  0.0 mm
23:51 65.5 °F /  18.6 °C 47.5 °F /  8.6 °C 29.8 in /  1010.0 hPa NNE 3.5 mph /  5.6 km/h 3.5 mph /  5.6 km/h 52 % 0 in /  0.0 mm
23:56 65.5 °F /  18.6 °C 47.5 °F /  8.6 °C 29.8 in /  1010.0 hPa NNE 3.5 mph /  5.6 km/h 3.5 mph /  5.6 km/h 52 % 0 in /  0.0 mm
Meteo Sesrovires
Elogis d' Weather Underground - 3.75 mb

Guio original per  Jim McMurry - jmcmurry@mwt.net Adaptat per a la plantilla per  Wim van der Kuil - Leuven-Template.eu

Trobareu la nostra informacio del temps tambe a:

Weather Underground

AWEKAS